Time;durP1;ratioP1;P1;durP2;ratioP2;P2;SDS_P1;SDS_P2;PMS_P1;PMS_P2;Temp;Humidity;BMP_temperature;BMP_pressure;BME280_temperature;BME280_humidity;BME280_pressure;Samples;Min_cycle;Max_cycle;Signal;HPM_P1;HPM_P2
2022/12/29 00:01:28;;;;;;;0.40;0.40;;;14.80;90.30;;;;;;5053843;28;20209;-69
2022/12/29 00:04:16;;;;;;;0.40;0.40;;;14.80;90.20;;;;;;5053696;28;20737;-69
2022/12/29 00:07:06;;;;;;;0.40;0.40;;;14.80;90.30;;;;;;5054003;28;20213;-69
2022/12/29 00:09:54;;;;;;;0.40;0.40;;;14.70;90.20;;;;;;5053370;28;20419;-69
2022/12/29 00:16:03;;;;;;;0.40;0.40;;;14.80;90.20;;;;;;5012082;28;20223;-69
2022/12/29 00:18:51;;;;;;;0.40;0.40;;;14.80;90.20;;;;;;5012112;28;20329;-67
2022/12/29 00:44:04;;;;;;;0.40;0.40;;;14.80;90.20;;;;;;5054355;28;20202;-70
2022/12/29 00:46:39;;;;;;;0.40;0.40;;;14.90;90.30;;;;;;5055214;28;20216;-69
2022/12/29 00:49:33;;;;;;;0.40;0.40;;;14.80;90.20;;;;;;5054141;28;20197;-69
2022/12/29 00:52:21;;;;;;;0.40;0.40;;;14.80;90.20;;;;;;5053388;28;20207;-70
2022/12/29 00:55:09;;;;;;;0.40;0.40;;;14.80;90.30;;;;;;5053819;28;20657;-69
2022/12/29 00:57:59;;;;;;;0.40;0.40;;;14.80;90.30;;;;;;5053753;28;20202;-71
2022/12/29 01:00:47;;;;;;;0.40;0.40;;;14.70;90.20;;;;;;5055144;28;20235;-70
2022/12/29 01:03:37;;;;;;;0.40;0.40;;;14.80;90.30;;;;;;5053991;28;20691;-69
2022/12/29 01:06:25;;;;;;;0.40;0.40;;;14.80;90.30;;;;;;5053494;28;20212;-70
2022/12/29 01:12:40;;;;;;;0.40;0.40;;;14.80;90.40;;;;;;5054398;28;20713;-70
2022/12/29 01:15:29;;;;;;;0.40;0.40;;;14.80;90.40;;;;;;5054518;28;20225;-69
2022/12/29 01:18:17;;;;;;;0.40;0.40;;;14.80;90.40;;;;;;5054241;28;20686;-69
2022/12/29 01:21:07;;;;;;;0.40;0.40;;;14.80;90.40;;;;;;5054684;28;20526;-68
2022/12/29 01:23:55;;;;;;;1.65;1.63;;;14.70;90.40;;;;;;5054157;28;20206;-72
2022/12/29 01:26:43;;;;;;;0.40;0.40;;;14.80;90.40;;;;;;5054865;28;20197;-69
2022/12/29 01:29:31;;;;;;;0.40;0.40;;;14.80;90.40;;;;;;5054261;28;20290;-71
2022/12/29 01:32:21;;;;;;;0.40;0.40;;;14.80;90.40;;;;;;5054157;28;20205;-72
2022/12/29 01:35:10;;;;;;;0.40;0.40;;;14.80;90.40;;;;;;5053300;28;20728;-70
2022/12/29 01:37:58;;;;;;;0.40;0.40;;;14.80;90.40;;;;;;5053886;28;20202;-69
2022/12/29 01:40:48;;;;;;;0.40;0.40;;;14.80;90.40;;;;;;5053721;28;20355;-70
2022/12/29 01:43:44;;;;;;;0.40;0.40;;;14.90;90.40;;;;;;5054212;28;20227;-69
2022/12/29 01:46:37;;;;;;;0.40;0.40;;;14.90;90.40;;;;;;5054357;28;20201;-69
2022/12/29 01:49:29;;;;;;;0.40;0.40;;;14.90;90.40;;;;;;5052399;28;20224;-69
2022/12/29 01:52:17;;;;;;;0.40;0.40;;;14.90;90.30;;;;;;5054196;28;20284;-68
2022/12/29 01:55:07;;;;;;;0.40;0.40;;;14.90;90.30;;;;;;5054007;28;20221;-70
2022/12/29 01:57:59;;;;;;;0.40;0.40;;;14.90;90.30;;;;;;5055020;28;20282;-69
2022/12/29 02:00:47;;;;;;;0.40;0.40;;;14.90;90.30;;;;;;5053536;28;20355;-69
2022/12/29 02:03:36;;;;;;;0.40;0.40;;;14.90;90.40;;;;;;5054315;28;20205;-70
2022/12/29 02:06:30;;;;;;;0.40;0.40;;;14.90;90.30;;;;;;5057361;28;20687;-71
2022/12/29 02:09:18;;;;;;;0.40;0.40;;;14.90;90.30;;;;;;5057321;28;20197;-69
2022/12/29 02:12:06;;;;;;;0.40;0.40;;;14.80;90.30;;;;;;5057074;28;20520;-68
2022/12/29 02:14:59;;;;;;;0.40;0.40;;;14.90;90.30;;;;;;5056977;28;20261;-70
2022/12/29 02:18:02;;;;;;;0.40;0.40;;;14.90;90.30;;;;;;5056662;28;20263;-73
2022/12/29 02:21:37;;;;;;;0.40;0.40;;;14.90;90.30;;;;;;5057062;28;20220;-75
2022/12/29 02:24:44;;;;;;;0.40;0.40;;;14.90;90.30;;;;;;5055949;28;20588;-69
2022/12/29 02:27:43;;;;;;;0.40;0.40;;;14.90;90.30;;;;;;5056621;28;20250;-71
2022/12/29 02:30:43;;;;;;;0.40;0.40;;;14.80;90.30;;;;;;5056948;28;20335;-69
2022/12/29 02:33:44;;;;;;;0.40;0.40;;;14.90;90.30;;;;;;5057599;28;20241;-70
2022/12/29 02:36:40;;;;;;;0.40;0.40;;;14.90;90.30;;;;;;5057394;28;20266;-69
2022/12/29 02:39:33;;;;;;;0.50;0.50;;;14.80;90.30;;;;;;5057150;28;20272;-70
2022/12/29 02:42:25;;;;;;;0.40;0.40;;;14.90;90.40;;;;;;5057283;28;20201;-69
2022/12/29 02:45:21;;;;;;;0.40;0.40;;;14.80;90.30;;;;;;5056779;28;20253;-70
2022/12/29 02:48:17;;;;;;;0.40;0.40;;;14.90;90.50;;;;;;5057024;28;20204;-69
2022/12/29 02:51:09;;;;;;;0.40;0.40;;;14.90;90.50;;;;;;5056676;28;20193;-69
2022/12/29 02:57:04;;;;;;;0.40;0.40;;;14.90;90.50;;;;;;5039516;28;20339;-71
2022/12/29 02:59:55;;;;;;;0.40;0.40;;;14.90;90.40;;;;;;5057193;28;20268;-71
2022/12/29 03:03:03;;;;;;;0.40;0.40;;;14.90;90.40;;;;;;5057273;28;20229;-69
2022/12/29 03:06:16;;;;;;;0.40;0.40;;;14.90;90.40;;;;;;5057229;28;20217;-70
2022/12/29 03:09:15;;;;;;;0.40;0.40;;;14.90;90.30;;;;;;5056750;28;20197;-70
2022/12/29 03:12:19;;;;;;;0.40;0.40;;;14.90;90.30;;;;;;5056940;28;20259;-68
2022/12/29 03:18:25;;;;;;;0.40;0.40;;;14.90;90.30;;;;;;5056116;28;20255;-68
2022/12/29 03:21:20;;;;;;;0.40;0.40;;;15.00;90.30;;;;;;5056152;28;20228;-70
2022/12/29 03:24:08;;;;;;;0.40;0.40;;;14.90;96.10;;;;;;5057289;28;20284;-69
2022/12/29 03:26:59;;;;;;;0.40;0.40;;;15.00;90.30;;;;;;5056652;28;20193;-69
2022/12/29 03:29:53;;;;;;;0.40;0.40;;;15.00;90.30;;;;;;5056791;28;20248;-70
2022/12/29 03:32:46;;;;;;;0.40;0.40;;;15.00;90.30;;;;;;5055966;28;20252;-69
2022/12/29 03:35:38;;;;;;;0.40;0.40;;;15.00;90.30;;;;;;5056739;28;20320;-69
2022/12/29 03:38:32;;;;;;;0.40;0.40;;;15.00;90.30;;;;;;5056234;28;20198;-70
2022/12/29 03:41:26;;;;;;;0.40;0.40;;;14.90;90.20;;;;;;5055965;28;20252;-69
2022/12/29 03:44:14;;;;;;;0.40;0.40;;;14.90;90.20;;;;;;5056001;28;20295;-69
2022/12/29 03:47:04;;;;;;;0.40;0.40;;;15.00;90.30;;;;;;5056212;28;20206;-69
2022/12/29 03:49:53;;;;;;;0.40;0.40;;;15.00;90.60;;;;;;5055345;28;20276;-70
2022/12/29 03:52:41;;;;;;;0.40;0.40;;;14.90;90.30;;;;;;5056053;28;20204;-70
2022/12/29 03:55:30;;;;;;;0.40;0.40;;;14.90;90.20;;;;;;5055754;28;20695;-69
2022/12/29 03:58:18;;;;;;;0.40;0.40;;;14.90;90.30;;;;;;5055966;28;20280;-69
2022/12/29 04:01:07;;;;;;;0.40;0.40;;;14.90;90.30;;;;;;5055771;28;20325;-69
2022/12/29 04:03:55;;;;;;;0.40;0.40;;;14.90;90.10;;;;;;5056242;28;20201;-70
2022/12/29 04:06:43;;;;;;;9.30;2.05;;;14.90;90.30;;;;;;5056803;28;20193;-69
2022/12/29 04:09:31;;;;;;;0.40;0.40;;;14.90;90.30;;;;;;5055908;28;20209;-69
2022/12/29 04:12:20;;;;;;;0.40;0.40;;;14.90;90.40;;;;;;5058282;28;20597;-69
2022/12/29 04:15:10;;;;;;;0.40;0.40;;;14.90;90.30;;;;;;5056932;28;20224;-69
2022/12/29 04:17:58;;;;;;;0.40;0.40;;;14.90;90.40;;;;;;5057037;28;20201;-70
2022/12/29 04:21:02;;;;;;;0.40;0.40;;;14.90;90.40;;;;;;5055996;28;20210;-69
2022/12/29 04:23:50;;;;;;;0.40;0.40;;;15.00;90.20;;;;;;5055906;28;20201;-70
2022/12/29 04:26:38;;;;;;;0.40;0.40;;;15.00;90.40;;;;;;5055705;28;20193;-70
2022/12/29 04:29:28;;;;;;;0.40;0.40;;;15.00;90.40;;;;;;5056258;28;20280;-68
2022/12/29 04:32:16;;;;;;;0.40;0.40;;;15.00;90.40;;;;;;5055867;28;20282;-69
2022/12/29 04:35:06;;;;;;;0.40;0.40;;;15.00;90.40;;;;;;5055670;28;20229;-68
2022/12/29 04:37:54;;;;;;;0.40;0.40;;;15.00;90.30;;;;;;5056070;28;20624;-68
2022/12/29 04:40:44;;;;;;;0.40;0.40;;;15.00;90.30;;;;;;5055502;28;20749;-69
2022/12/29 04:43:32;;;;;;;0.40;0.40;;;15.00;90.30;;;;;;5055957;28;20207;-69
2022/12/29 04:46:22;;;;;;;0.40;0.40;;;15.00;90.30;;;;;;5055695;28;20202;-69
2022/12/29 04:49:10;;;;;;;0.40;0.40;;;15.00;90.30;;;;;;5055603;28;20284;-70
2022/12/29 04:51:58;;;;;;;0.40;0.40;;;15.00;90.30;;;;;;5055348;28;20689;-69
2022/12/29 04:54:46;;;;;;;0.40;0.40;;;15.00;90.30;;;;;;5056153;28;20295;-69
2022/12/29 04:57:34;;;;;;;0.40;0.40;;;15.00;90.30;;;;;;5055090;28;20197;-68
2022/12/29 05:00:22;;;;;;;0.40;0.40;;;15.00;90.20;;;;;;5054204;28;20232;-69
2022/12/29 05:03:12;;;;;;;0.40;0.40;;;15.00;90.20;;;;;;5055630;28;20728;-68
2022/12/29 05:06:01;;;;;;;0.40;0.40;;;15.00;90.20;;;;;;5054845;28;20225;-69
2022/12/29 05:08:49;;;;;;;0.40;0.40;;;15.00;90.20;;;;;;5054555;28;20233;-74
2022/12/29 05:11:37;;;;;;;0.40;0.40;;;15.00;90.30;;;;;;5054427;28;20195;-69
2022/12/29 05:14:25;;;;;;;0.40;0.40;;;15.00;90.30;;;;;;5053301;28;20228;-70
2022/12/29 05:17:13;;;;;;;0.40;0.40;;;15.00;90.30;;;;;;5054911;28;20200;-72
2022/12/29 05:20:02;;;;;;;2.10;1.70;;;15.00;90.30;;;;;;5052541;28;20238;-68
2022/12/29 05:22:50;;;;;;;0.40;0.40;;;15.00;90.30;;;;;;5054039;28;20208;-69
2022/12/29 05:25:38;;;;;;;0.40;0.40;;;15.00;90.30;;;;;;5054719;28;20225;-68
2022/12/29 05:28:27;;;;;;;0.40;0.40;;;15.00;90.30;;;;;;5053522;28;20197;-69
2022/12/29 05:31:15;;;;;;;0.40;0.40;;;15.00;90.30;;;;;;5055161;28;20205;-69
2022/12/29 05:34:04;;;;;;;0.40;0.40;;;15.00;90.20;;;;;;5053162;28;20216;-68
2022/12/29 05:36:54;;;;;;;0.40;0.40;;;15.00;90.40;;;;;;5055203;28;20704;-70
2022/12/29 05:39:42;;;;;;;0.40;0.40;;;15.00;90.30;;;;;;5056449;28;20613;-69
2022/12/29 05:42:30;;;;;;;0.40;0.40;;;15.00;90.40;;;;;;5058495;28;20303;-68
2022/12/29 05:45:18;;;;;;;0.40;0.40;;;15.20;90.40;;;;;;5057937;28;20235;-71
2022/12/29 05:48:06;;;;;;;0.50;0.50;;;15.00;90.40;;;;;;5057622;28;20284;-69
2022/12/29 05:50:54;;;;;;;0.40;0.40;;;15.00;90.40;;;;;;5061768;28;20284;-69
2022/12/29 05:53:43;;;;;;;0.40;0.40;;;15.00;90.30;;;;;;5059207;28;20201;-69
2022/12/29 05:56:32;;;;;;;0.40;0.40;;;15.00;90.30;;;;;;5058614;28;20205;-68
2022/12/29 05:59:20;;;;;;;0.40;0.40;;;15.00;90.40;;;;;;5057516;28;20265;-69
2022/12/29 06:02:08;;;;;;;0.40;0.40;;;15.00;90.40;;;;;;5058553;28;20360;-68
2022/12/29 06:04:57;;;;;;;0.40;0.40;;;15.00;90.40;;;;;;5057466;28;20240;-68
2022/12/29 06:07:45;;;;;;;0.40;0.40;;;15.00;90.40;;;;;;5058505;28;20242;-68
2022/12/29 06:10:34;;;;;;;0.40;0.40;;;15.00;90.40;;;;;;5058509;28;20275;-70
2022/12/29 06:13:22;;;;;;;0.50;0.50;;;15.00;90.40;;;;;;5057472;28;20276;-69
2022/12/29 06:16:11;;;;;;;0.40;0.40;;;15.00;90.40;;;;;;5057449;28;20348;-70
2022/12/29 06:18:59;;;;;;;0.40;0.40;;;15.00;90.40;;;;;;5056860;28;20211;-70
2022/12/29 06:21:47;;;;;;;0.40;0.40;;;15.00;90.50;;;;;;5055950;28;20213;-69
2022/12/29 06:24:35;;;;;;;0.40;0.40;;;15.00;90.40;;;;;;5056725;28;20352;-68
2022/12/29 06:27:24;;;;;;;0.40;0.40;;;15.00;90.40;;;;;;5057533;28;20255;-70
2022/12/29 06:30:14;;;;;;;0.40;0.40;;;15.00;90.40;;;;;;5056330;28;20197;-68
2022/12/29 06:33:03;;;;;;;0.40;0.40;;;15.00;90.40;;;;;;5057883;28;20202;-69
2022/12/29 06:35:51;;;;;;;0.40;0.40;;;15.00;90.40;;;;;;5057851;28;20717;-70
2022/12/29 06:38:39;;;;;;;0.40;0.40;;;15.00;90.50;;;;;;5055291;28;20229;-70
2022/12/29 06:41:27;;;;;;;0.40;0.40;;;15.00;90.50;;;;;;5055027;28;20296;-70
2022/12/29 06:44:21;;;;;;;0.40;0.40;;;15.00;90.50;;;;;;5055319;28;20217;-70
2022/12/29 06:47:09;;;;;;;0.40;0.40;;;15.00;90.50;;;;;;5056820;28;20204;-71
2022/12/29 06:49:57;;;;;;;0.40;0.40;;;15.00;90.50;;;;;;5054733;28;20197;-70
2022/12/29 06:52:45;;;;;;;0.40;0.40;;;15.00;90.50;;;;;;5055546;28;20699;-69
2022/12/29 06:55:33;;;;;;;0.40;0.40;;;15.00;90.50;;;;;;5056306;28;20229;-68
2022/12/29 06:58:21;;;;;;;0.40;0.40;;;15.00;90.50;;;;;;5054889;28;20197;-69
2022/12/29 07:01:11;;;;;;;0.40;0.40;;;15.00;90.60;;;;;;5056537;28;20323;-70
2022/12/29 07:03:59;;;;;;;0.40;0.40;;;15.00;90.50;;;;;;5054744;28;20202;-71
2022/12/29 07:06:47;;;;;;;0.40;0.40;;;15.10;90.60;;;;;;5054631;28;20330;-69
2022/12/29 07:09:35;;;;;;;0.40;0.40;;;15.10;90.90;;;;;;5054781;28;20197;-69
2022/12/29 07:12:23;;;;;;;0.40;0.40;;;15.10;90.50;;;;;;5055916;28;20201;-69
2022/12/29 07:15:11;;;;;;;0.40;0.40;;;15.10;90.50;;;;;;5056073;28;20644;-70
2022/12/29 07:18:01;;;;;;;0.40;0.40;;;15.00;90.50;;;;;;5056319;28;20201;-70
2022/12/29 07:20:49;;;;;;;0.40;0.40;;;15.10;90.50;;;;;;5054232;28;20198;-71
2022/12/29 07:23:37;;;;;;;0.40;0.40;;;15.10;90.50;;;;;;5054399;28;20306;-69
2022/12/29 07:26:25;;;;;;;0.40;0.40;;;15.10;90.50;;;;;;5055690;28;20279;-70
2022/12/29 07:29:20;;;;;;;0.40;0.40;;;15.20;90.50;;;;;;5054388;28;20692;-71
2022/12/29 07:32:08;;;;;;;0.40;0.40;;;15.10;90.50;;;;;;5056135;28;20327;-69
2022/12/29 07:34:57;;;;;;;0.40;0.40;;;15.10;90.50;;;;;;5054753;28;20303;-69
2022/12/29 07:37:45;;;;;;;0.40;0.40;;;15.00;90.50;;;;;;5055283;28;20280;-70
2022/12/29 07:40:33;;;;;;;0.40;0.40;;;15.10;90.50;;;;;;5054307;28;20224;-70
2022/12/29 07:43:22;;;;;;;0.40;0.40;;;15.00;90.50;;;;;;5055832;28;20274;-69
2022/12/29 07:46:10;;;;;;;0.40;0.40;;;15.00;90.50;;;;;;5054210;28;20221;-71
2022/12/29 07:49:18;;;;;;;0.40;0.40;;;15.00;90.50;;;;;;5053902;28;20205;-70
2022/12/29 07:52:07;;;;;;;0.40;0.40;;;15.00;90.50;;;;;;5054166;28;20675;-70
2022/12/29 07:54:55;;;;;;;0.40;0.40;;;15.10;90.60;;;;;;5054363;28;20220;-70
2022/12/29 07:57:43;;;;;;;0.40;0.40;;;15.10;90.50;;;;;;5055058;28;20198;-69
2022/12/29 08:00:31;;;;;;;0.40;0.40;;;15.00;90.50;;;;;;5053815;28;20793;-68
2022/12/29 08:03:21;;;;;;;0.40;0.40;;;15.10;90.60;;;;;;5054616;28;20256;-69
2022/12/29 08:06:10;;;;;;;0.40;0.40;;;15.00;90.50;;;;;;5053665;28;20221;-70
2022/12/29 08:09:00;;;;;;;0.40;0.40;;;15.10;90.60;;;;;;5053783;28;20331;-70
2022/12/29 08:11:59;;;;;;;0.40;0.40;;;15.10;90.60;;;;;;5054895;28;20193;-69
2022/12/29 08:14:47;;;;;;;0.40;0.40;;;15.10;90.70;;;;;;5053942;28;20217;-70
2022/12/29 08:17:35;;;;;;;0.40;0.40;;;15.10;90.70;;;;;;5055033;28;20689;-70
2022/12/29 08:20:23;;;;;;;0.40;0.40;;;15.10;90.70;;;;;;5053372;28;20203;-70
2022/12/29 08:23:11;;;;;;;0.40;0.40;;;15.10;90.70;;;;;;5053555;28;20219;-70
2022/12/29 08:26:01;;;;;;;0.40;0.40;;;15.10;90.40;;;;;;5053738;28;20308;-70
2022/12/29 08:28:49;;;;;;;0.40;0.40;;;15.10;90.60;;;;;;5054532;28;20259;-70
2022/12/29 08:31:38;;;;;;;0.40;0.40;;;15.10;90.60;;;;;;5055193;28;20721;-69
2022/12/29 08:34:26;;;;;;;0.40;0.40;;;15.10;90.60;;;;;;5053575;28;20225;-69
2022/12/29 08:37:14;;;;;;;0.40;0.40;;;15.10;90.60;;;;;;5053792;28;20624;-71
2022/12/29 08:40:03;;;;;;;0.50;0.50;;;15.20;90.60;;;;;;5052871;28;20279;-70
2022/12/29 08:42:53;;;;;;;0.40;0.40;;;15.20;90.60;;;;;;5054349;28;20248;-69
2022/12/29 08:45:41;;;;;;;0.40;0.40;;;15.20;90.60;;;;;;5052023;28;20225;-71
2022/12/29 08:48:29;;;;;;;1.37;1.17;;;15.20;90.60;;;;;;5052871;28;20219;-68
2022/12/29 08:51:17;;;;;;;0.40;0.40;;;15.20;90.60;;;;;;5053287;28;20617;-69
2022/12/29 08:54:11;;;;;;;0.40;0.40;;;15.20;90.60;;;;;;5053337;28;20221;-69
2022/12/29 08:57:00;;;;;;;0.40;0.40;;;15.20;90.60;;;;;;5053272;28;20500;-71
2022/12/29 08:59:49;;;;;;;0.40;0.40;;;15.20;90.50;;;;;;5053093;28;20272;-71
2022/12/29 09:02:37;;;;;;;0.40;0.40;;;15.20;90.50;;;;;;5053893;28;20297;-71
2022/12/29 09:05:25;;;;;;;0.40;0.40;;;14.40;90.20;;;;;;5053315;28;20233;-70
2022/12/29 09:08:13;;;;;;;0.40;0.40;;;15.20;90.50;;;;;;5052462;28;20202;-72
2022/12/29 09:11:09;;;;;;;0.40;0.40;;;15.20;90.50;;;;;;5052959;28;20555;-71
2022/12/29 09:13:57;;;;;;;0.40;0.40;;;15.20;90.50;;;;;;5055269;28;20260;-70
2022/12/29 09:19:52;;;;;;;0.40;0.40;;;15.20;90.60;;;;;;5057375;28;20239;-70
2022/12/29 09:22:41;;;;;;;0.40;0.40;;;15.20;90.50;;;;;;5058387;28;20220;-69
2022/12/29 09:25:29;;;;;;;0.40;0.40;;;15.20;90.50;;;;;;5056971;28;20227;-70
2022/12/29 09:28:17;;;;;;;0.40;0.40;;;15.20;90.50;;;;;;5057041;28;20311;-68
2022/12/29 09:31:06;;;;;;;0.40;0.40;;;15.20;90.50;;;;;;5056758;28;20194;-71
2022/12/29 09:33:56;;;;;;;0.40;0.40;;;15.20;90.30;;;;;;5057903;28;20201;-69
2022/12/29 09:36:44;;;;;;;0.40;0.40;;;15.20;90.60;;;;;;5057814;28;20197;-70
2022/12/29 09:39:32;;;;;;;0.40;0.40;;;15.20;90.50;;;;;;5057027;28;20209;-71
2022/12/29 09:42:25;;;;;;;0.40;0.40;;;15.20;90.60;;;;;;5058147;28;20243;-71
2022/12/29 09:45:17;;;;;;;0.40;0.40;;;15.20;90.60;;;;;;5057168;28;20275;-69
2022/12/29 09:48:12;;;;;;;0.40;0.40;;;15.20;90.60;;;;;;5057631;28;20685;-69
2022/12/29 09:51:06;;;;;;;0.40;0.40;;;15.30;90.60;;;;;;5056447;28;20224;-71
2022/12/29 09:54:01;;;;;;;0.40;0.40;;;15.20;90.60;;;;;;5058179;28;20202;-70
2022/12/29 09:56:50;;;;;;;0.40;0.40;;;15.20;90.60;;;;;;5056951;28;20201;-71
2022/12/29 09:59:41;;;;;;;0.40;0.40;;;15.30;90.60;;;;;;5055879;28;20205;-71
2022/12/29 10:02:38;;;;;;;0.40;0.40;;;15.30;90.60;;;;;;5057273;28;20201;-68
2022/12/29 10:05:40;;;;;;;0.40;0.40;;;15.30;90.60;;;;;;5056220;28;20296;-71
2022/12/29 10:08:40;;;;;;;0.40;0.40;;;15.20;90.60;;;;;;5056155;28;20639;-70
2022/12/29 10:11:42;;;;;;;0.40;0.40;;;15.20;90.60;;;;;;5056066;28;20201;-69
2022/12/29 10:14:51;;;;;;;0.40;0.40;;;15.20;90.60;;;;;;5057741;28;20231;-71
2022/12/29 10:17:46;;;;;;;0.40;0.40;;;15.30;90.70;;;;;;5057399;28;20201;-69
2022/12/29 10:20:46;;;;;;;0.40;0.40;;;15.30;90.70;;;;;;5055611;28;20197;-69
2022/12/29 10:23:40;;;;;;;0.40;0.40;;;15.30;90.70;;;;;;5056260;28;20312;-69
2022/12/29 10:26:34;;;;;;;0.40;0.40;;;15.30;90.70;;;;;;5055738;28;20264;-70
2022/12/29 10:29:26;;;;;;;0.40;0.40;;;15.30;90.70;;;;;;5056490;28;20284;-69
2022/12/29 10:32:24;;;;;;;0.40;0.40;;;15.30;90.70;;;;;;5055894;28;20205;-69
2022/12/29 10:35:18;;;;;;;0.40;0.40;;;15.20;90.70;;;;;;5055842;28;20613;-71
2022/12/29 10:38:16;;;;;;;0.40;0.40;;;15.30;90.80;;;;;;5055818;28;20207;-70
2022/12/29 10:41:12;;;;;;;0.40;0.40;;;15.30;90.80;;;;;;5055026;28;20280;-69
2022/12/29 10:44:01;;;;;;;0.40;0.40;;;15.20;90.60;;;;;;5055919;28;20218;-70
2022/12/29 10:46:56;;;;;;;0.40;0.40;;;15.30;90.80;;;;;;5056798;28;20251;-69
2022/12/29 10:49:47;;;;;;;0.40;0.40;;;15.30;90.80;;;;;;5055295;28;20902;-69
2022/12/29 10:52:38;;;;;;;0.40;0.40;;;15.30;90.80;;;;;;5055366;28;20268;-70
2022/12/29 10:55:31;;;;;;;0.40;0.40;;;15.30;90.80;;;;;;5055021;28;20221;-69
2022/12/29 10:58:22;;;;;;;0.40;0.40;;;15.30;90.80;;;;;;5055800;28;20202;-70
2022/12/29 11:01:12;;;;;;;0.73;0.73;;;15.30;90.80;;;;;;5055197;28;20702;-69
2022/12/29 11:04:04;;;;;;;0.40;0.40;;;15.30;90.70;;;;;;5056383;28;20225;-69
2022/12/29 11:06:53;;;;;;;0.40;0.40;;;15.30;90.90;;;;;;5055303;28;20287;-70
2022/12/29 11:09:41;;;;;;;0.40;0.40;;;15.30;90.80;;;;;;5056239;28;20304;-69
2022/12/29 11:12:32;;;;;;;0.40;0.40;;;15.40;90.90;;;;;;5056213;28;20264;-67
2022/12/29 11:15:21;;;;;;;0.40;0.40;;;15.40;90.90;;;;;;5054895;28;20586;-70
2022/12/29 11:18:24;;;;;;;0.40;0.40;;;15.40;90.90;;;;;;5054638;28;20205;-68
2022/12/29 11:21:27;;;;;;;0.40;0.40;;;15.30;90.90;;;;;;5055437;28;20234;-68
2022/12/29 11:24:22;;;;;;;0.40;0.40;;;15.30;90.80;;;;;;5056115;28;20221;-68
2022/12/29 11:27:17;;;;;;;0.40;0.40;;;15.30;90.90;;;;;;5056353;28;20239;-69
2022/12/29 11:30:25;;;;;;;0.40;0.40;;;15.30;90.90;;;;;;5054610;28;20284;-68
2022/12/29 11:33:13;;;;;;;0.40;0.40;;;15.30;90.90;;;;;;5054327;28;20681;-69
2022/12/29 11:36:06;;;;;;;0.40;0.40;;;15.30;90.90;;;;;;5055083;28;20243;-69
2022/12/29 11:38:56;;;;;;;0.40;0.40;;;15.30;90.90;;;;;;5055716;28;20297;-69
2022/12/29 11:41:53;;;;;;;0.40;0.40;;;15.30;90.90;;;;;;5054945;28;20224;-68
2022/12/29 11:44:46;;;;;;;0.40;0.40;;;15.30;90.90;;;;;;5055084;28;20229;-69
2022/12/29 11:47:36;;;;;;;0.40;0.40;;;15.30;90.90;;;;;;5055322;28;20202;-68
2022/12/29 11:50:26;;;;;;;0.40;0.40;;;15.30;90.90;;;;;;5054440;28;20670;-71
2022/12/29 11:53:21;;;;;;;0.40;0.40;;;15.30;91.00;;;;;;5055633;28;20239;-70
2022/12/29 11:56:11;;;;;;;0.40;0.40;;;15.30;91.00;;;;;;5054119;28;20636;-68
2022/12/29 11:59:37;;;;;;;2.40;2.30;;;15.30;91.00;;;;;;5055355;28;20241;-68
2022/12/29 12:02:44;;;;;;;0.40;0.40;;;15.30;91.00;;;;;;5055184;28;20224;-68
2022/12/29 12:05:39;;;;;;;0.40;0.40;;;15.30;91.00;;;;;;5055394;28;20233;-69
2022/12/29 12:08:35;;;;;;;1.95;1.85;;;15.30;91.00;;;;;;5054062;28;20522;-69
2022/12/29 12:11:33;;;;;;;0.40;0.40;;;15.30;91.10;;;;;;5054146;28;20255;-70
2022/12/29 12:14:26;;;;;;;0.40;0.40;;;15.30;91.10;;;;;;5053962;28;20217;-69
2022/12/29 12:17:19;;;;;;;0.40;0.40;;;15.30;91.20;;;;;;5054801;28;20288;-68
2022/12/29 12:20:17;;;;;;;0.40;0.40;;;15.30;91.20;;;;;;5053522;28;20205;-68
2022/12/29 12:23:19;;;;;;;0.40;0.40;;;15.30;91.20;;;;;;5053710;28;20269;-69
2022/12/29 12:26:12;;;;;;;0.40;0.40;;;15.30;91.20;;;;;;5053328;28;20270;-69
2022/12/29 12:29:09;;;;;;;0.40;0.40;;;15.30;91.20;;;;;;5054856;28;20596;-68
2022/12/29 12:32:02;;;;;;;0.40;0.40;;;15.30;91.30;;;;;;5052923;28;20327;-68
2022/12/29 12:34:52;;;;;;;0.40;0.40;;;15.30;91.30;;;;;;5055265;28;20308;-67
2022/12/29 12:38:01;;;;;;;0.40;0.40;;;15.30;91.20;;;;;;5053573;28;20279;-67
2022/12/29 12:41:01;;;;;;;0.40;0.40;;;15.30;91.20;;;;;;5052864;28;20208;-68
2022/12/29 12:43:52;;;;;;;0.40;0.40;;;15.40;91.30;;;;;;5053127;28;20201;-69
2022/12/29 12:46:53;;;;;;;0.40;0.40;;;15.40;91.30;;;;;;5053350;28;20205;-67
2022/12/29 12:50:15;;;;;;;0.40;0.40;;;15.40;91.30;;;;;;5054593;28;20201;-68
2022/12/29 12:53:19;;;;;;;0.40;0.40;;;15.40;91.30;;;;;;5054322;28;20259;-69
2022/12/29 12:56:44;;;;;;;0.40;0.40;;;15.30;91.30;;;;;;5052852;28;20263;-67
2022/12/29 12:59:43;;;;;;;0.40;0.40;;;15.40;91.40;;;;;;5052925;28;20295;-67
2022/12/29 13:02:47;;;;;;;0.40;0.40;;;15.40;91.40;;;;;;5052980;28;20207;-69
2022/12/29 13:05:48;;;;;;;0.40;0.40;;;15.40;91.40;;;;;;5054154;28;20705;-69
2022/12/29 13:09:15;;;;;;;0.40;0.40;;;15.40;91.30;;;;;;5053154;28;20274;-68
2022/12/29 13:12:14;;;;;;;0.40;0.40;;;15.40;91.30;;;;;;5011327;28;20747;-67
2022/12/29 13:15:15;;;;;;;0.40;0.40;;;15.40;91.40;;;;;;5011972;28;20210;-68
2022/12/29 13:18:14;;;;;;;0.40;0.40;;;15.40;91.30;;;;;;5054303;28;20255;-69
2022/12/29 13:21:10;;;;;;;0.40;0.40;;;15.40;91.30;;;;;;5055034;28;20280;-68
2022/12/29 13:24:04;;;;;;;0.40;0.40;;;15.40;91.30;;;;;;5055462;28;20237;-68
2022/12/29 13:27:01;;;;;;;0.40;0.40;;;15.40;91.40;;;;;;5053257;28;20250;-66
2022/12/29 13:30:00;;;;;;;0.40;0.40;;;15.30;91.30;;;;;;5053934;28;20201;-69
2022/12/29 13:32:57;;;;;;;0.40;0.40;;;15.30;91.40;;;;;;5053996;28;20677;-67
2022/12/29 13:36:01;;;;;;;0.40;0.40;;;15.40;91.40;;;;;;5053647;28;20363;-68
2022/12/29 13:39:03;;;;;;;0.40;0.40;;;15.40;91.50;;;;;;5053696;28;20200;-67
2022/12/29 13:41:54;;;;;;;0.40;0.40;;;15.30;91.40;;;;;;5052814;28;20275;-67
2022/12/29 13:44:46;;;;;;;0.40;0.40;;;15.40;91.50;;;;;;5054005;28;20244;-68
2022/12/29 13:47:38;;;;;;;0.40;0.40;;;15.30;91.40;;;;;;5052578;28;20279;-67
2022/12/29 13:50:29;;;;;;;0.40;0.40;;;15.30;91.50;;;;;;5053007;28;20218;-68
2022/12/29 13:53:26;;;;;;;0.40;0.40;;;15.40;91.50;;;;;;5053697;28;20206;-67
2022/12/29 13:56:24;;;;;;;0.40;0.40;;;15.30;91.50;;;;;;5052361;28;20220;-67
2022/12/29 13:59:19;;;;;;;0.40;0.40;;;15.40;91.60;;;;;;5053579;28;20811;-67
2022/12/29 14:02:18;;;;;;;0.40;0.40;;;15.40;91.60;;;;;;5055945;28;20645;-69
2022/12/29 14:05:31;;;;;;;0.40;0.40;;;15.40;91.60;;;;;;5056157;28;20710;-69
2022/12/29 14:08:19;;;;;;;0.40;0.40;;;15.40;91.70;;;;;;5057272;28;20211;-68
2022/12/29 14:11:10;;;;;;;0.40;0.40;;;15.30;91.60;;;;;;5056082;28;20224;-67
2022/12/29 14:14:10;;;;;;;0.40;0.40;;;15.40;91.40;;;;;;5057220;28;20283;-68
2022/12/29 14:17:10;;;;;;;0.40;0.40;;;15.30;91.60;;;;;;5055629;28;20666;-68
2022/12/29 14:20:03;;;;;;;0.40;0.40;;;15.30;91.60;;;;;;5057069;28;20200;-68
2022/12/29 14:23:00;;;;;;;0.40;0.40;;;15.30;91.60;;;;;;5055618;28;20280;-67
2022/12/29 14:26:00;;;;;;;0.40;0.40;;;15.30;91.60;;;;;;5056235;28;20249;-68
2022/12/29 14:28:49;;;;;;;0.40;0.40;;;15.30;91.60;;;;;;5056142;28;20251;-67
2022/12/29 14:31:40;;;;;;;0.40;0.40;;;15.30;91.70;;;;;;5056996;28;20211;-67
2022/12/29 14:34:40;;;;;;;0.40;0.40;;;15.30;91.70;;;;;;5056486;28;20319;-67
2022/12/29 14:37:29;;;;;;;0.40;0.40;;;15.30;91.70;;;;;;5055461;28;20696;-70
2022/12/29 14:40:22;;;;;;;0.40;0.40;;;15.40;91.70;;;;;;5056398;28;20232;-67
2022/12/29 14:43:14;;;;;;;0.40;0.40;;;15.30;91.70;;;;;;5055752;28;20304;-67
2022/12/29 14:46:03;;;;;;;0.40;0.40;;;15.30;91.80;;;;;;5055597;28;20221;-68
2022/12/29 14:49:00;;;;;;;0.40;0.40;;;15.30;91.80;;;;;;5056171;28;20290;-67
2022/12/29 14:51:50;;;;;;;0.40;0.40;;;15.30;91.80;;;;;;5055610;28;20193;-68
2022/12/29 14:54:49;;;;;;;0.40;0.40;;;15.30;91.80;;;;;;5054721;28;20283;-69
2022/12/29 14:57:41;;;;;;;0.40;0.40;;;15.30;91.80;;;;;;5055356;28;20219;-68
2022/12/29 15:00:33;;;;;;;0.40;0.40;;;15.30;91.80;;;;;;5055970;28;20233;-68
2022/12/29 15:03:24;;;;;;;0.40;0.40;;;15.30;91.90;;;;;;5055066;28;20198;-67
2022/12/29 15:06:18;;;;;;;0.40;0.40;;;15.30;91.90;;;;;;5055550;28;20225;-67
2022/12/29 15:09:14;;;;;;;0.40;0.40;;;15.30;92.10;;;;;;5055866;28;20283;-72
2022/12/29 15:12:07;;;;;;;0.40;0.40;;;15.30;92.00;;;;;;5053890;28;20212;-69
2022/12/29 15:15:02;;;;;;;0.40;0.40;;;15.30;92.10;;;;;;5056371;28;20267;-67
2022/12/29 15:17:50;;;;;;;0.40;0.40;;;15.30;92.00;;;;;;5054509;28;20698;-69
2022/12/29 15:20:39;;;;;;;0.40;0.40;;;15.30;92.20;;;;;;5056262;28;20284;-68
2022/12/29 15:23:31;;;;;;;0.40;0.40;;;15.30;92.10;;;;;;5055776;28;20293;-69
2022/12/29 15:26:22;;;;;;;0.40;0.40;;;15.30;92.20;;;;;;5054392;28;20226;-68
2022/12/29 15:29:32;;;;;;;0.40;0.40;;;15.30;92.00;;;;;;5056542;28;20858;-71
2022/12/29 15:32:22;;;;;;;0.40;0.40;;;15.30;92.00;;;;;;5054753;28;20237;-68
2022/12/29 15:35:25;;;;;;;0.40;0.40;;;15.30;92.10;;;;;;5054503;28;20692;-68
2022/12/29 15:38:15;;;;;;;0.40;0.40;;;15.30;92.10;;;;;;5055099;28;20283;-69